Time;durP1;ratioP1;P1;durP2;ratioP2;P2;SDS_P1;SDS_P2;PMS_P1;PMS_P2;Temp;Humidity;BMP_temperature;BMP_pressure;BME280_temperature;BME280_humidity;BME280_pressure;Samples;Min_cycle;Max_cycle;Signal;HPM_P1;HPM_P2
2023/06/30 00:01:30;204235.00;0.68;353.21;0.00;0.00;0.62;;;;;26.30;1.00;;;;;;2268092;61;1031;-86
2023/06/30 00:03:59;0.00;0.00;0.62;0.00;0.00;0.62;;;;;26.40;1.00;;;;;;2268093;61;1585;-87
2023/06/30 00:06:26;87787.00;0.29;152.49;0.00;0.00;0.62;;;;;26.40;1.00;;;;;;2268106;61;1025;-87
2023/06/30 00:08:53;123522.00;0.41;214.16;0.00;0.00;0.62;;;;;26.20;1.00;;;;;;2268158;61;1390;-88
2023/06/30 00:11:23;41851.00;0.14;73.09;0.00;0.00;0.62;;;;;26.30;1.00;;;;;;2268108;61;1000;-89
2023/06/30 00:13:51;0.00;0.00;0.62;0.00;0.00;0.62;;;;;26.40;1.00;;;;;;2268066;61;1108;-87
2023/06/30 00:16:19;0.00;0.00;0.62;0.00;0.00;0.62;;;;;26.30;1.00;;;;;;2268086;61;1994;-88
2023/06/30 00:18:46;162959.00;0.54;282.14;0.00;0.00;0.62;;;;;26.30;1.00;;;;;;2268088;61;1259;-84
2023/06/30 00:21:15;98501.00;0.33;170.98;0.00;0.00;0.62;;;;;26.40;1.00;;;;;;2268057;61;913;-87
2023/06/30 00:23:42;222972.00;0.74;385.46;78077.00;0.26;135.72;;;;;26.30;1.00;;;;;;2271130;61;1517;-88
2023/06/30 00:26:09;70988.00;0.24;123.47;0.00;0.00;0.62;;;;;26.30;1.00;;;;;;2271906;61;1058;-88
2023/06/30 00:28:36;170809.00;0.57;295.66;0.00;0.00;0.62;;;;;25.90;1.00;;;;;;2272119;61;1410;-85
2023/06/30 00:31:03;23806.00;0.08;41.86;0.00;0.00;0.62;;;;;25.80;1.00;;;;;;2272147;61;941;-87
2023/06/30 00:33:30;117165416.00;390.55;65151528.00;117047576.00;390.16;64954972.00;;;;;25.80;1.00;;;;;;2272101;61;1051;-88
2023/06/30 00:35:57;32796.00;0.11;57.42;0.00;0.00;0.62;;;;;25.90;1.00;;;;;;2272030;61;1574;-88
2023/06/30 00:38:26;117114048.00;390.38;65065792.00;119331.00;0.40;206.93;;;;;26.10;1.00;;;;;;2272023;61;1993;-87
2023/06/30 00:40:53;118709856.00;395.70;67764440.00;76762.00;0.26;133.44;;;;;25.80;1.00;;;;;;2272784;61;1142;-87
2023/06/30 00:43:19;251830.00;0.84;435.10;75691.00;0.25;131.59;;;;;25.70;1.00;;;;;;2272694;61;1721;-86
2023/06/30 00:45:47;188447.00;0.63;326.03;57849.00;0.19;100.76;;;;;25.70;1.00;;;;;;2272768;61;958;-87
2023/06/30 00:48:17;452976.00;1.51;780.90;141607.00;0.47;245.34;;;;;25.80;1.00;;;;;;2272672;61;1739;-89
2023/06/30 00:50:44;231444.00;0.77;400.03;80238.00;0.27;139.45;;;;;25.90;1.00;;;;;;2272787;61;1125;-88
2023/06/30 00:53:12;190875.00;0.64;330.22;84897.00;0.28;147.50;;;;;25.90;1.00;;;;;;2272752;61;1070;-87
2023/06/30 00:55:41;177390.00;0.59;306.99;59716.00;0.20;103.99;;;;;25.80;1.00;;;;;;2272789;61;1706;-88
2023/06/30 00:58:09;171793.00;0.57;297.35;78886.00;0.26;137.11;;;;;25.80;1.00;;;;;;2272718;61;1927;-88
2023/06/30 01:00:36;238242.00;0.79;411.73;70353.00;0.23;122.37;;;;;26.00;1.00;;;;;;2272624;61;1991;-91
2023/06/30 01:03:14;456929.00;1.52;787.70;97164.00;0.32;168.68;;;;;25.90;1.00;;;;;;2272657;61;1023;-89
2023/06/30 01:05:50;367928.00;1.23;634.68;95858.00;0.32;166.42;;;;;25.80;1.00;;;;;;2272673;61;1074;-88
2023/06/30 01:08:24;186240.00;0.62;322.23;67534.00;0.23;117.50;;;;;25.80;1.00;;;;;;2272650;61;1372;-87
2023/06/30 01:10:54;272901.00;0.91;471.33;96907.00;0.32;168.23;;;;;25.80;1.00;;;;;;2272635;61;1082;-90
2023/06/30 01:13:23;206684.00;0.69;357.43;73212.00;0.24;127.31;;;;;25.80;1.00;;;;;;2272653;61;1513;-89
2023/06/30 01:15:53;443874.00;1.48;765.25;160465.00;0.53;277.84;;;;;25.90;1.00;;;;;;2272630;61;1071;-88
2023/06/30 01:18:22;232448.00;0.77;401.76;86073.00;0.29;149.53;;;;;25.70;1.00;;;;;;2272339;61;1914;-89
2023/06/30 01:20:51;281030.00;0.94;485.31;74173.00;0.25;128.97;;;;;25.60;1.00;;;;;;2272538;61;2210;-88
2023/06/30 01:23:26;333081.00;1.11;574.78;85698.00;0.29;148.88;;;;;25.60;1.00;;;;;;2272499;61;1605;-87
2023/06/30 01:25:56;332532.00;1.11;573.84;83782.00;0.28;145.57;;;;;25.80;1.00;;;;;;2272751;61;907;-87
2023/06/30 01:28:23;181714.00;0.61;314.44;80218.00;0.27;139.41;;;;;25.70;1.00;;;;;;2272455;61;1324;-87
2023/06/30 01:30:50;324992.00;1.08;560.88;72494.00;0.24;126.07;;;;;25.50;1.00;;;;;;2272548;61;1584;-88
2023/06/30 01:33:17;230168.00;0.77;397.84;69706.00;0.23;121.25;;;;;25.60;1.00;;;;;;2272534;61;1068;-87
2023/06/30 01:35:44;242231.00;0.81;418.59;72513.00;0.24;126.10;;;;;25.60;1.00;;;;;;2272514;61;1022;-89
2023/06/30 01:38:11;308725.00;1.03;532.92;85773.00;0.29;149.01;;;;;25.50;1.00;;;;;;2272521;61;1919;-88
2023/06/30 01:40:38;285849.00;0.95;493.59;81515.00;0.27;141.65;;;;;25.30;1.00;;;;;;2272450;61;1102;-89
2023/06/30 01:43:07;297399.00;0.99;513.45;88078.00;0.29;152.99;;;;;25.20;1.00;;;;;;2272538;61;1091;-86
2023/06/30 01:45:35;318908.00;1.06;550.42;77425.00;0.26;134.59;;;;;25.30;1.00;;;;;;2272536;61;1143;-87
2023/06/30 01:48:02;290440.00;0.97;501.49;76012.00;0.25;132.15;;;;;25.20;1.00;;;;;;2272508;61;1554;-87
2023/06/30 01:50:31;230774.00;0.77;398.88;77379.00;0.26;134.51;;;;;25.30;1.00;;;;;;2272313;61;1051;-87
2023/06/30 01:52:58;215769.00;0.72;373.06;80994.00;0.27;140.75;;;;;25.10;1.00;;;;;;2272596;61;1766;-87
2023/06/30 01:55:26;223149.00;0.74;385.76;63125.00;0.21;109.88;;;;;25.10;1.00;;;;;;2272455;61;1699;-87
2023/06/30 01:57:53;168793.00;0.56;292.19;77649.00;0.26;134.98;;;;;25.10;1.00;;;;;;2272423;61;2010;-88
2023/06/30 02:00:22;297050.00;0.99;512.85;78679.00;0.26;136.76;;;;;25.00;1.00;;;;;;2272391;61;1066;-87
2023/06/30 02:02:48;247876.00;0.83;428.30;81598.00;0.27;141.80;;;;;24.90;1.00;;;;;;2272515;61;993;-87
2023/06/30 02:05:15;241041.00;0.80;416.54;82957.00;0.28;144.14;;;;;24.80;1.00;;;;;;2272467;61;1025;-88
2023/06/30 02:07:42;362744.00;1.21;625.77;104159.00;0.35;180.75;;;;;24.80;1.00;;;;;;2272436;61;1315;-88
2023/06/30 02:10:09;314905.00;1.05;543.54;110057.00;0.37;190.93;;;;;24.70;1.00;;;;;;2272467;61;1611;-89
2023/06/30 02:12:36;200604.00;0.67;346.96;85109.00;0.28;147.86;;;;;24.70;1.00;;;;;;2272356;61;1663;-86
2023/06/30 02:15:03;353375.00;1.18;609.66;91773.00;0.31;159.37;;;;;24.70;1.00;;;;;;2272308;61;1026;-88
2023/06/30 02:17:33;206360.00;0.69;356.87;73867.00;0.25;128.44;;;;;24.80;1.00;;;;;;2272284;61;1928;-85
2023/06/30 02:20:00;207143.00;0.69;358.22;78758.00;0.26;136.89;;;;;24.90;1.00;;;;;;2272331;61;1734;-86
2023/06/30 02:22:28;331808.00;1.11;572.59;77424.00;0.26;134.59;;;;;24.90;1.00;;;;;;2272290;61;1139;-89
2023/06/30 02:24:56;258266.00;0.86;446.17;88375.00;0.29;153.50;;;;;24.70;1.00;;;;;;2272354;61;1614;-88
2023/06/30 02:27:23;388237.00;1.29;669.58;77945.00;0.26;135.49;;;;;24.90;1.00;;;;;;2272441;61;1303;-87
2023/06/30 02:29:50;220767.00;0.74;381.66;77965.00;0.26;135.52;;;;;25.00;1.00;;;;;;2272463;61;1039;-86
2023/06/30 02:32:17;424039.00;1.41;731.14;111222.00;0.37;192.94;;;;;25.00;1.00;;;;;;2272454;61;1024;-90
2023/06/30 02:34:45;198510.00;0.66;343.36;78242.00;0.26;136.00;;;;;25.20;1.00;;;;;;2272416;61;1010;-87
2023/06/30 02:37:12;243006.00;0.81;419.92;78980.00;0.26;137.28;;;;;24.80;1.00;;;;;;2272257;61;2014;-87
2023/06/30 02:39:39;298611.00;1.00;515.53;78820.00;0.26;137.00;;;;;24.90;1.00;;;;;;2272444;61;1754;-88
2023/06/30 02:42:07;263737.00;0.88;455.57;87754.00;0.29;152.43;;;;;24.90;1.00;;;;;;2272359;61;1091;-87
2023/06/30 02:44:33;337348.00;1.12;582.12;77458.00;0.26;134.65;;;;;24.90;1.00;;;;;;2272355;61;1607;-85
2023/06/30 02:47:00;248378.00;0.83;429.16;84765.00;0.28;147.27;;;;;24.80;1.00;;;;;;2272408;61;1360;-88
2023/06/30 02:49:27;468628.00;1.56;807.83;75457.00;0.25;131.19;;;;;24.80;1.00;;;;;;2272351;61;1083;-86
2023/06/30 02:51:56;316823.00;1.06;546.84;66572.00;0.22;115.84;;;;;24.80;1.00;;;;;;2272355;61;1534;-89
2023/06/30 02:54:22;236117.00;0.79;408.07;71967.00;0.24;125.16;;;;;24.80;1.00;;;;;;2272297;61;1496;-86
2023/06/30 02:56:49;612236.00;2.04;1055.35;153422.00;0.51;265.70;;;;;24.50;1.00;;;;;;2272322;61;1273;-87
2023/06/30 02:59:16;239451.00;0.80;413.81;83942.00;0.28;145.85;;;;;24.60;1.00;;;;;;2272314;61;1930;-87
2023/06/30 03:01:44;278938.00;0.93;481.71;62837.00;0.21;109.38;;;;;24.70;1.00;;;;;;2272335;61;2252;-88
2023/06/30 03:04:11;210130.00;0.70;363.36;78128.00;0.26;135.80;;;;;24.80;1.00;;;;;;2272543;61;1649;-88
2023/06/30 03:06:38;266688.00;0.89;460.65;75438.00;0.25;131.16;;;;;24.80;1.00;;;;;;2272546;61;1527;-90
2023/06/30 03:09:07;243156.00;0.81;420.18;86214.00;0.29;149.77;;;;;24.80;1.00;;;;;;2272638;61;990;-87
2023/06/30 03:11:34;337664.00;1.13;582.66;82357.00;0.27;143.11;;;;;24.70;1.00;;;;;;2272647;61;1007;-88
2023/06/30 03:14:02;405028.00;1.35;698.45;90150.00;0.30;156.57;;;;;24.60;1.00;;;;;;2272464;61;1058;-88
2023/06/30 03:16:28;342973.00;1.14;591.78;86678.00;0.29;150.57;;;;;24.60;1.00;;;;;;2272619;61;1652;-86
2023/06/30 03:18:55;428315.00;1.43;738.49;105095.00;0.35;182.37;;;;;24.40;1.00;;;;;;2272593;61;1998;-87
2023/06/30 03:21:22;421170.00;1.40;726.20;148254.00;0.49;256.80;;;;;24.40;1.00;;;;;;2272234;61;1019;-88
2023/06/30 03:23:49;412027.00;1.37;710.48;77719.00;0.26;135.10;;;;;24.30;1.00;;;;;;2272517;61;1612;-87
2023/06/30 03:26:18;364803.00;1.22;629.30;123457.00;0.41;214.05;;;;;24.20;1.00;;;;;;2272656;61;1165;-87
2023/06/30 03:28:45;433574.00;1.45;747.53;103651.00;0.35;179.87;;;;;24.10;1.00;;;;;;2272526;61;1752;-85
2023/06/30 03:31:12;227892.00;0.76;393.92;74263.00;0.25;129.13;;;;;24.20;1.00;;;;;;2272595;61;1002;-87
2023/06/30 03:33:39;320550.00;1.07;553.24;76981.00;0.26;133.82;;;;;24.30;1.00;;;;;;2272534;61;1608;-89
2023/06/30 03:36:07;251578.00;0.84;434.66;77507.00;0.26;134.73;;;;;24.30;1.00;;;;;;2272393;61;1641;-88
2023/06/30 03:38:34;383331.00;1.28;661.15;73484.00;0.24;127.78;;;;;24.20;1.00;;;;;;2272461;61;2001;-90
2023/06/30 03:41:01;566338.00;1.89;976.13;194880.00;0.65;337.11;;;;;24.30;1.00;;;;;;2272418;61;1664;-88
2023/06/30 03:43:31;272576.00;0.91;470.77;82816.00;0.28;143.90;;;;;24.50;1.00;;;;;;2272521;61;1749;-87
2023/06/30 03:45:58;227682.00;0.76;393.56;77894.00;0.26;135.40;;;;;24.60;1.00;;;;;;2272567;61;1041;-88
2023/06/30 03:48:25;260292.00;0.87;449.65;77981.00;0.26;135.55;;;;;24.80;1.00;;;;;;2272439;61;1593;-89
2023/06/30 03:50:54;240355.00;0.80;415.36;78944.00;0.26;137.21;;;;;24.70;1.00;;;;;;2272346;61;1732;-88
2023/06/30 03:53:21;372960.00;1.24;643.32;78518.00;0.26;136.48;;;;;24.70;1.00;;;;;;2272513;61;1640;-88
2023/06/30 03:55:48;422274.00;1.41;728.10;79664.00;0.27;138.46;;;;;24.60;1.00;;;;;;2272534;61;1142;-86
2023/06/30 03:58:15;404549.00;1.35;697.63;79896.00;0.27;138.86;;;;;24.60;1.00;;;;;;2272346;61;1923;-86
2023/06/30 04:00:44;275410.00;0.92;475.65;73204.00;0.24;127.30;;;;;24.50;1.00;;;;;;2272435;61;1558;-89
2023/06/30 04:03:11;275845.00;0.92;476.39;76312.00;0.25;132.67;;;;;24.50;1.00;;;;;;2272510;61;1013;-90
2023/06/30 04:05:38;640214.00;2.13;1103.71;123200.00;0.41;213.60;;;;;24.50;1.00;;;;;;2272448;61;1604;-89
2023/06/30 04:08:05;468222.00;1.56;807.13;78574.00;0.26;136.57;;;;;24.30;1.00;;;;;;2272410;61;1402;-88
2023/06/30 04:10:32;399040.00;1.33;688.15;83423.00;0.28;144.95;;;;;24.40;1.00;;;;;;2272423;61;1031;-89
2023/06/30 04:12:59;494057.00;1.65;851.59;85937.00;0.29;149.29;;;;;24.20;1.00;;;;;;2272443;61;1633;-87
2023/06/30 04:15:26;562148.00;1.87;968.90;79136.00;0.26;137.54;;;;;24.30;1.00;;;;;;2273039;61;1150;-87
2023/06/30 04:17:54;117384120.00;391.28;65517368.00;96296.00;0.32;167.18;;;;;24.20;1.00;;;;;;2273121;61;1907;-89
2023/06/30 04:20:21;302826.00;1.01;522.78;70181.00;0.23;122.07;;;;;24.50;1.00;;;;;;2273063;61;1150;-87
2023/06/30 04:22:48;434550.00;1.45;749.21;77052.00;0.26;133.94;;;;;24.30;1.00;;;;;;2273081;61;1002;-87
2023/06/30 04:25:15;473856.00;1.58;816.82;88952.00;0.30;154.50;;;;;24.30;1.00;;;;;;2273091;61;1086;-87
2023/06/30 04:27:43;430323.00;1.43;741.94;80818.00;0.27;140.45;;;;;24.30;1.00;;;;;;2273028;61;1282;-87
2023/06/30 04:30:10;804849.00;2.68;1389.58;128694.00;0.43;223.08;;;;;24.30;1.00;;;;;;2273138;61;1801;-86
2023/06/30 04:32:37;506316.00;1.69;872.70;80746.00;0.27;140.33;;;;;24.10;1.00;;;;;;2273124;61;1135;-85
2023/06/30 04:35:07;405040.00;1.35;698.47;78017.00;0.26;135.61;;;;;24.10;1.00;;;;;;2273069;61;1178;-86
2023/06/30 04:37:40;385857.00;1.29;665.49;65857.00;0.22;114.60;;;;;24.10;1.00;;;;;;2273062;61;1287;-88
2023/06/30 04:40:09;277146.00;0.92;478.63;0.00;0.00;0.62;;;;;24.20;1.00;;;;;;2273055;61;1623;-88
2023/06/30 04:42:37;420837.00;1.40;725.63;0.00;0.00;0.62;;;;;24.50;1.00;;;;;;2273006;61;1169;-86
2023/06/30 04:45:05;456618.00;1.52;787.17;0.00;0.00;0.62;;;;;24.70;1.00;;;;;;2273061;61;1218;-87
2023/06/30 04:47:33;557367.00;1.86;960.66;38607.00;0.13;67.48;;;;;24.80;1.00;;;;;;2272996;61;1762;-87
2023/06/30 04:50:01;385295.00;1.28;664.53;0.00;0.00;0.62;;;;;24.70;1.00;;;;;;2272992;61;1603;-87
2023/06/30 04:52:30;309417.00;1.03;534.11;0.00;0.00;0.62;;;;;24.70;1.00;;;;;;2273019;61;1015;-87
2023/06/30 04:54:58;177961.00;0.59;307.98;0.00;0.00;0.62;;;;;24.60;1.00;;;;;;2272995;61;1798;-87
2023/06/30 04:57:27;182597.00;0.61;315.96;0.00;0.00;0.62;;;;;24.70;1.00;;;;;;2272291;61;1639;-88
2023/06/30 05:27:21;346722.00;1.16;598.23;0.00;0.00;0.62;;;;;23.90;1.00;;;;;;2271085;61;1313;-89
2023/06/30 05:29:48;224208.00;0.75;387.58;46848.00;0.16;81.73;;;;;24.00;1.00;;;;;;2269222;61;827;-88
2023/06/30 06:02:09;406913.00;1.36;701.69;0.00;0.00;0.62;;;;;23.80;1.00;;;;;;2270709;61;1024;-90
2023/06/30 06:07:05;466959.00;1.56;804.96;0.00;0.00;0.62;;;;;23.60;1.00;;;;;;2270808;61;1393;-89
2023/06/30 06:34:29;399723.00;1.33;689.33;0.00;0.00;0.62;;;;;24.50;1.00;;;;;;2315572;55;3711;-88
2023/06/30 06:41:53;325760.00;1.09;562.20;0.00;0.00;0.62;;;;;24.50;1.00;;;;;;2323411;55;3662;-88
2023/06/30 07:09:10;557832.00;1.86;961.46;0.00;0.00;0.62;;;;;24.00;1.00;;;;;;2265761;61;1388;-89
2023/06/30 07:11:37;461269.00;1.54;795.17;0.00;0.00;0.62;;;;;24.20;1.00;;;;;;2279507;40;3608;-89
2023/06/30 07:14:04;245000.00;0.82;423.35;0.00;0.00;0.62;;;;;24.50;1.00;;;;;;2377186;40;3575;-87
2023/06/30 07:58:53;616839.00;2.06;1063.30;0.00;0.00;0.62;;;;;24.30;2.80;;;;;;2270761;61;1878;-86
2023/06/30 08:01:20;405096.00;1.35;698.57;0.00;0.00;0.62;;;;;24.50;3.50;;;;;;2272300;40;3662;-87
2023/06/30 08:03:48;298227.00;0.99;514.87;0.00;0.00;0.62;;;;;24.70;2.30;;;;;;2269505;61;1103;-87
2023/06/30 08:06:15;85919.00;0.29;149.26;0.00;0.00;0.62;;;;;25.00;1.00;;;;;;2269478;61;1802;-89
2023/06/30 08:11:10;794528.00;2.65;1371.58;0.00;0.00;0.62;;;;;25.30;1.00;;;;;;2270241;61;1417;-87
2023/06/30 08:13:37;105965.00;0.35;183.87;0.00;0.00;0.62;;;;;25.30;1.30;;;;;;2268712;61;990;-88
2023/06/30 08:16:06;185629.00;0.62;321.18;0.00;0.00;0.62;;;;;25.60;1.00;;;;;;2287375;40;3607;-88
2023/06/30 08:23:34;652247.00;2.17;1124.52;0.00;0.00;0.62;;;;;25.30;1.20;;;;;;2279807;40;3593;-90
2023/06/30 08:28:30;612087.00;2.04;1055.09;0.00;0.00;0.62;;;;;25.60;1.00;;;;;;2274067;61;1396;-87
2023/06/30 09:10:58;993887.00;3.31;1721.65;80414.00;0.27;139.75;;;;;27.40;1.00;;;;;;2393965;41;3491;-90
2023/06/30 09:18:24;120551512.00;401.84;70970480.00;83930.00;0.28;145.83;;;;;27.00;1.00;;;;;;2270695;61;1883;-89
2023/06/30 09:50:42;1313677.00;4.38;2297.16;113663.00;0.38;197.15;;;;;25.70;1.00;;;;;;1978460;41;3618;-89
2023/06/30 10:08:08;997854.00;3.33;1728.67;49220.00;0.16;85.84;;;;;26.10;1.00;;;;;;2265886;61;1401;-88
2023/06/30 10:15:32;685024.00;2.28;1181.28;7557.00;0.03;13.72;;;;;25.70;1.00;;;;;;2269789;61;1405;-88
2023/06/30 10:18:01;419036.00;1.40;722.53;0.00;0.00;0.62;;;;;25.70;1.00;;;;;;2268214;61;1282;-88
2023/06/30 10:25:30;871058.00;2.90;1505.34;0.00;0.00;0.62;;;;;25.90;1.00;;;;;;2283098;55;3668;-88
2023/06/30 10:37:50;914937.00;3.05;1582.37;7255.00;0.02;13.19;;;;;25.50;1.00;;;;;;2273599;61;1365;-88
2023/06/30 10:40:29;426716.00;1.42;735.74;36855.00;0.12;64.45;;;;;25.70;1.00;;;;;;2272132;61;2033;-88
2023/06/30 10:42:57;86513.00;0.29;150.29;0.00;0.00;0.62;;;;;25.70;1.00;;;;;;2272143;61;1042;-87
2023/06/30 11:00:31;616358.00;2.05;1062.47;0.00;0.00;0.62;;;;;25.40;1.00;;;;;;2333167;40;3666;-90
2023/06/30 11:20:30;429156.00;1.43;739.93;0.00;0.00;0.62;;;;;26.20;1.00;;;;;;2269829;61;1979;-88
2023/06/30 11:25:28;333364.00;1.11;575.27;8600.00;0.03;15.52;;;;;26.20;1.00;;;;;;2269984;61;1381;-90
2023/06/30 11:32:58;198357.00;0.66;343.10;0.00;0.00;0.62;;;;;26.90;1.00;;;;;;2298903;40;3561;-85
2023/06/30 11:35:29;83174.00;0.28;144.52;0.00;0.00;0.62;;;;;27.20;1.00;;;;;;2284704;55;3758;-89
2023/06/30 11:40:27;584569.00;1.95;1007.58;49447.00;0.16;86.23;;;;;27.10;1.00;;;;;;2298345;40;3531;-90
2023/06/30 11:47:54;206183.00;0.69;356.57;0.00;0.00;0.62;;;;;27.40;1.00;;;;;;2349420;40;3474;-87
2023/06/30 11:55:20;462039.00;1.54;796.49;0.00;0.00;0.62;;;;;27.40;1.00;;;;;;2294564;55;3702;-89
2023/06/30 12:00:19;356864.00;1.19;615.66;0.00;0.00;0.62;;;;;27.40;1.00;;;;;;2274596;40;3391;-88
2023/06/30 12:02:48;67009.00;0.22;116.59;0.00;0.00;0.62;;;;;27.60;1.00;;;;;;2267853;61;1025;-89
2023/06/30 12:05:17;19734.00;0.07;34.81;0.00;0.00;0.62;;;;;27.40;1.00;;;;;;2267912;61;1261;-89
2023/06/30 12:07:46;47970.00;0.16;83.68;0.00;0.00;0.62;;;;;27.40;1.00;;;;;;2267931;61;1745;-88
2023/06/30 12:10:14;76010.00;0.25;132.14;0.00;0.00;0.62;;;;;27.40;1.00;;;;;;2267964;61;962;-88
2023/06/30 12:12:43;241019.00;0.80;416.50;0.00;0.00;0.62;;;;;27.30;1.00;;;;;;2267981;61;1574;-88
2023/06/30 12:15:14;70388.00;0.23;122.43;0.00;0.00;0.62;;;;;27.70;1.00;;;;;;2267927;61;1201;-90
2023/06/30 12:17:43;256709.00;0.86;443.49;0.00;0.00;0.62;;;;;28.00;1.00;;;;;;2267943;61;1584;-88
2023/06/30 12:20:11;62240.00;0.21;108.35;0.00;0.00;0.62;;;;;27.80;1.00;;;;;;2267920;61;2012;-87
2023/06/30 12:22:41;123690.00;0.41;214.45;0.00;0.00;0.62;;;;;27.50;1.00;;;;;;2267857;61;2129;-89
2023/06/30 12:25:11;49334.00;0.16;86.03;0.00;0.00;0.62;;;;;27.70;1.00;;;;;;2268036;61;1299;-89
2023/06/30 12:27:41;41362.00;0.14;72.24;0.00;0.00;0.62;;;;;27.80;1.00;;;;;;2268000;61;1437;-88
2023/06/30 12:30:16;9468.00;0.03;17.03;0.00;0.00;0.62;;;;;27.70;1.00;;;;;;2268054;61;1058;-88
2023/06/30 12:32:43;94669.00;0.32;164.37;0.00;0.00;0.62;;;;;27.60;1.00;;;;;;2268006;61;2173;-89
2023/06/30 12:35:11;221901.00;0.74;383.61;58181.00;0.19;101.33;;;;;27.30;1.00;;;;;;2268264;61;1660;-89
2023/06/30 12:37:38;163787.00;0.55;283.56;0.00;0.00;0.62;;;;;27.20;1.00;;;;;;2268796;61;1290;-89
2023/06/30 12:40:07;101341.00;0.34;175.89;0.00;0.00;0.62;;;;;27.10;1.00;;;;;;2268698;61;1915;-90
2023/06/30 12:42:34;0.00;0.00;0.62;0.00;0.00;0.62;;;;;27.50;1.00;;;;;;2268640;61;1027;-89
2023/06/30 12:47:32;281351.00;0.94;485.86;0.00;0.00;0.62;;;;;27.80;1.00;;;;;;2274713;61;1411;-88
2023/06/30 12:49:59;172943.00;0.58;299.34;0.00;0.00;0.62;;;;;27.60;1.00;;;;;;2272764;61;1089;-88
2023/06/30 12:54:54;331953.00;1.11;572.84;0.00;0.00;0.62;;;;;27.10;1.00;;;;;;2270693;61;1380;-87
2023/06/30 12:59:48;207459.00;0.69;358.76;0.00;0.00;0.62;;;;;27.50;1.00;;;;;;2270011;61;1953;-87
2023/06/30 13:02:15;121729.00;0.41;211.06;0.00;0.00;0.62;;;;;27.30;1.00;;;;;;2268584;61;1291;-89
2023/06/30 13:04:44;19206.00;0.06;33.90;0.00;0.00;0.62;;;;;27.30;1.00;;;;;;2268546;61;1012;-89
2023/06/30 13:07:11;39772.00;0.13;69.49;0.00;0.00;0.62;;;;;27.80;1.00;;;;;;2268559;61;1291;-89
2023/06/30 13:09:38;22352.00;0.07;39.34;0.00;0.00;0.62;;;;;28.00;1.00;;;;;;2268545;61;1044;-89
2023/06/30 13:12:07;49658.00;0.17;86.59;0.00;0.00;0.62;;;;;28.30;1.00;;;;;;2268634;61;1125;-89
2023/06/30 13:14:34;145584.00;0.49;252.20;0.00;0.00;0.62;;;;;28.60;1.00;;;;;;2268587;61;937;-88
2023/06/30 13:17:01;149511.00;0.50;258.96;0.00;0.00;0.62;;;;;28.60;1.00;;;;;;2268511;61;1622;-88
2023/06/30 13:21:59;314308.00;1.05;542.51;0.00;0.00;0.62;;;;;28.60;1.00;;;;;;2270206;61;1354;-90
2023/06/30 13:24:26;58505.00;0.20;101.89;0.00;0.00;0.62;;;;;28.30;1.00;;;;;;2268430;61;1023;-89
2023/06/30 13:26:54;430948.00;1.44;743.02;0.00;0.00;0.62;;;;;27.90;1.00;;;;;;2310240;41;3624;-85
2023/06/30 13:29:21;522190.00;1.74;900.04;143284.00;0.48;248.23;;;;;27.00;1.00;;;;;;2288222;40;3596;-87
2023/06/30 13:36:45;684850.00;2.28;1180.98;100995.00;0.34;175.29;;;;;26.20;1.00;;;;;;2275019;56;3684;-89
2023/06/30 13:44:12;327168.00;1.09;564.62;0.00;0.00;0.62;;;;;26.40;1.00;;;;;;2270671;61;1322;-88
2023/06/30 13:49:09;715220.00;2.38;1233.64;0.00;0.00;0.62;;;;;26.60;1.00;;;;;;2265806;61;1367;-90
2023/06/30 13:51:36;258805.00;0.86;447.09;0.00;0.00;0.62;;;;;26.40;1.00;;;;;;2276636;56;3794;-88
2023/06/30 14:04:08;378217.00;1.26;652.36;0.00;0.00;0.62;;;;;27.10;1.00;;;;;;2270754;61;1052;-91
2023/06/30 14:06:35;259458.00;0.86;448.22;0.00;0.00;0.62;;;;;27.30;1.00;;;;;;2268981;61;1708;-93
2023/06/30 14:11:31;424031.00;1.41;731.12;0.00;0.00;0.62;;;;;27.80;1.00;;;;;;2266714;61;1368;-90
2023/06/30 14:14:03;42930.00;0.14;74.96;0.00;0.00;0.62;;;;;27.90;1.00;;;;;;2264959;61;1568;-93
2023/06/30 14:31:29;473842.00;1.58;816.80;0.00;0.00;0.62;;;;;28.50;1.00;;;;;;2389096;40;3632;-90
2023/06/30 14:38:54;556178.00;1.85;958.61;0.00;0.00;0.62;;;;;28.60;1.00;;;;;;2303991;40;3590;-88
2023/06/30 14:41:22;534550.00;1.78;921.33;24404.00;0.08;42.90;;;;;28.90;1.00;;;;;;2277329;40;3462;-89
2023/06/30 14:43:49;272245.00;0.91;470.20;0.00;0.00;0.62;;;;;29.10;1.00;;;;;;2272236;61;1201;-89
2023/06/30 14:46:16;130167.00;0.43;225.62;0.00;0.00;0.62;;;;;28.80;1.00;;;;;;2272270;61;1661;-89
2023/06/30 14:56:15;557934.00;1.86;961.64;78779.00;0.26;136.93;;;;;28.50;1.00;;;;;;2283452;55;3689;-88
2023/06/30 15:06:08;397054.00;1.32;684.74;0.00;0.00;0.62;;;;;28.30;1.00;;;;;;2300151;40;3738;-87
2023/06/30 15:08:35;419019.00;1.40;722.50;0.00;0.00;0.62;;;;;28.40;1.00;;;;;;2355890;40;3862;-88
2023/06/30 15:11:02;240721.00;0.80;415.99;17067.00;0.06;30.19;;;;;28.50;1.00;;;;;;2272199;61;949;-88
2023/06/30 15:13:30;305191.00;1.02;526.84;0.00;0.00;0.62;;;;;28.50;1.00;;;;;;2272166;61;1060;-89
2023/06/30 15:15:57;131158.00;0.44;227.33;0.00;0.00;0.62;;;;;28.40;1.00;;;;;;2272307;61;1079;-89
2023/06/30 15:18:24;330215.00;1.10;569.86;29607.00;0.10;51.90;;;;;28.50;1.00;;;;;;2272208;61;1285;-90
2023/06/30 15:20:51;119526.00;0.40;207.26;0.00;0.00;0.62;;;;;28.50;1.00;;;;;;2272089;61;1998;-88
2023/06/30 15:23:18;543825.00;1.81;937.32;130596.00;0.44;226.36;;;;;28.60;1.00;;;;;;2272271;61;1024;-87
2023/06/30 15:25:45;386074.00;1.29;665.87;42568.00;0.14;74.33;;;;;28.20;1.00;;;;;;2272252;61;1098;-88
2023/06/30 15:28:12;304205.00;1.01;525.15;66555.00;0.22;115.81;;;;;28.20;1.00;;;;;;2272222;61;1583;-88
2023/06/30 15:30:40;488307.00;1.63;841.69;165153.00;0.55;285.92;;;;;28.10;1.00;;;;;;2272253;61;1024;-89
2023/06/30 15:33:08;74008.00;0.25;128.69;0.00;0.00;0.62;;;;;28.00;1.00;;;;;;2272178;61;931;-88
2023/06/30 15:35:36;696300.00;2.32;1200.82;217641.00;0.73;376.28;;;;;27.90;1.00;;;;;;2272139;61;1153;-89
2023/06/30 15:38:03;434171.00;1.45;748.56;0.00;0.00;0.62;;;;;27.60;1.00;;;;;;2272100;61;1269;-89
2023/06/30 15:40:32;130738.00;0.44;226.60;0.00;0.00;0.62;;;;;27.30;1.00;;;;;;2271991;61;2006;-88
2023/06/30 15:42:59;258742.00;0.86;446.99;50606.00;0.17;88.23;;;;;27.10;1.00;;;;;;2272192;61;1235;-88
2023/06/30 15:45:26;219224.00;0.73;379.01;24444.00;0.08;42.96;;;;;27.20;1.00;;;;;;2272180;61;1035;-90
2023/06/30 15:47:56;47552.00;0.16;82.95;0.00;0.00;0.62;;;;;27.20;1.00;;;;;;2272155;61;1374;-87
2023/06/30 15:50:22;137391.00;0.46;238.07;0.00;0.00;0.62;;;;;27.40;1.00;;;;;;2272284;61;920;-89
2023/06/30 15:52:49;7836.00;0.03;14.20;0.00;0.00;0.62;;;;;27.60;1.00;;;;;;2272191;61;1036;-87
2023/06/30 15:55:17;192133.00;0.64;332.38;0.00;0.00;0.62;;;;;27.60;1.00;;;;;;2272203;61;1751;-88
2023/06/30 15:57:44;0.00;0.00;0.62;0.00;0.00;0.62;;;;;27.60;1.00;;;;;;2272057;61;1598;-89
2023/06/30 16:00:13;138819.00;0.46;240.53;0.00;0.00;0.62;;;;;27.60;1.00;;;;;;2272162;61;1907;-87
2023/06/30 16:02:39;161797.00;0.54;280.14;0.00;0.00;0.62;;;;;27.80;1.00;;;;;;2272069;61;1599;-90
2023/06/30 16:05:09;173245.00;0.58;299.86;0.00;0.00;0.62;;;;;27.80;1.00;;;;;;2272029;61;1551;-88
2023/06/30 16:07:36;97420.00;0.32;169.12;0.00;0.00;0.62;;;;;27.80;1.00;;;;;;2272131;61;1372;-87
2023/06/30 16:10:04;60121.00;0.20;104.69;0.00;0.00;0.62;;;;;27.80;1.00;;;;;;2272384;61;1156;-88
2023/06/30 16:12:31;96182.00;0.32;166.98;0.00;0.00;0.62;;;;;27.80;1.00;;;;;;2272892;61;1496;-88
2023/06/30 16:14:58;154312.00;0.51;267.24;0.00;0.00;0.62;;;;;27.80;1.00;;;;;;2272866;61;1029;-88
2023/06/30 16:17:25;194885.00;0.65;337.12;0.00;0.00;0.62;;;;;27.60;1.00;;;;;;2272743;61;1387;-88
2023/06/30 16:19:52;268759.00;0.90;464.21;31457.00;0.10;55.10;;;;;27.60;1.00;;;;;;2272853;61;1990;-89
2023/06/30 16:22:20;43518.00;0.15;75.97;0.00;0.00;0.62;;;;;27.40;1.00;;;;;;2272910;61;922;-86
2023/06/30 16:24:47;73761.00;0.25;128.26;0.00;0.00;0.62;;;;;27.10;1.00;;;;;;2272804;61;1041;-89